createdAt,value
2023-07-22T00:00:57.766Z,6.27
2023-07-22T00:04:01.361Z,6.50
2023-07-22T00:07:04.906Z,6.23
2023-07-22T00:10:09.448Z,6.50
2023-07-22T00:13:14.009Z,6.73
2023-07-22T00:16:17.465Z,7.90
2023-07-22T00:19:22.215Z,6.77
2023-07-22T00:22:27.840Z,7.00
2023-07-22T00:25:31.287Z,7.23
2023-07-22T00:28:35.983Z,6.60
2023-07-22T00:31:39.105Z,7.53
2023-07-22T00:34:42.268Z,7.63
2023-07-22T00:37:45.521Z,7.37
2023-07-22T00:40:48.900Z,7.67
2023-07-22T00:43:54.022Z,8.03
2023-07-22T00:47:00.004Z,7.27
2023-07-22T00:50:05.009Z,8.13
2023-07-22T00:53:08.337Z,8.13
2023-07-22T00:56:17.135Z,7.97
2023-07-22T00:59:21.992Z,7.70
2023-07-22T01:02:25.833Z,6.97
2023-07-22T01:05:29.961Z,7.00
2023-07-22T01:08:33.200Z,8.23
2023-07-22T01:11:36.378Z,7.80
2023-07-22T01:14:42.472Z,7.40
2023-07-22T01:17:45.893Z,8.00
2023-07-22T01:20:49.898Z,8.63
2023-07-22T01:23:54.887Z,7.77
2023-07-22T01:26:58.429Z,7.77
2023-07-22T01:30:03.658Z,7.07
2023-07-22T01:33:06.834Z,10.03
2023-07-22T01:36:10.315Z,7.57
2023-07-22T01:39:15.564Z,7.73
2023-07-22T01:42:18.732Z,8.33
2023-07-22T01:45:54.661Z,7.60
2023-07-22T01:48:58.257Z,8.83
2023-07-22T01:52:01.819Z,7.03
2023-07-22T01:55:07.489Z,7.10
2023-07-22T01:58:10.833Z,7.70
2023-07-22T02:01:15.048Z,7.67
2023-07-22T02:04:18.215Z,7.87
2023-07-22T02:07:21.416Z,7.97
2023-07-22T02:10:26.042Z,6.90
2023-07-22T02:13:29.155Z,7.83
2023-07-22T02:16:32.448Z,7.73
2023-07-22T02:19:35.643Z,7.70
2023-07-22T02:22:38.902Z,7.20
2023-07-22T02:25:44.066Z,6.10
2023-07-22T02:28:47.993Z,7.17
2023-07-22T02:31:51.664Z,6.80
2023-07-22T02:34:54.843Z,6.97
2023-07-22T02:38:04.983Z,6.93
2023-07-22T02:41:09.947Z,6.93
2023-07-22T02:44:13.717Z,6.53
2023-07-22T02:47:16.808Z,6.77
2023-07-22T02:50:20.587Z,6.90
2023-07-22T02:53:23.797Z,6.20
2023-07-22T02:56:29.056Z,6.80
2023-07-22T02:59:32.434Z,6.60
2023-07-22T03:02:35.786Z,7.10
2023-07-22T03:05:39.347Z,6.70
2023-07-22T03:08:42.467Z,6.80
2023-07-22T03:11:47.037Z,6.43
2023-07-22T03:14:50.461Z,6.40
2023-07-22T03:17:53.614Z,6.20
2023-07-22T03:20:56.722Z,6.07
2023-07-22T03:23:59.816Z,5.80
2023-07-22T03:27:04.463Z,6.20
2023-07-22T03:30:09.248Z,6.10
2023-07-22T03:33:12.562Z,7.03
2023-07-22T03:36:15.715Z,6.30
2023-07-22T03:39:19.063Z,6.03
2023-07-22T03:42:23.696Z,6.17
2023-07-22T03:45:26.736Z,5.73
2023-07-22T03:48:30.146Z,6.27
2023-07-22T03:51:33.390Z,7.10
2023-07-22T03:54:36.477Z,5.80
2023-07-22T03:57:41.233Z,6.33
2023-07-22T04:00:44.388Z,6.33
2023-07-22T04:03:48.609Z,6.03
2023-07-22T04:06:51.979Z,6.63
2023-07-22T04:09:55.056Z,6.67
2023-07-22T04:12:59.463Z,5.90
2023-07-22T04:16:02.551Z,6.70
2023-07-22T04:19:05.774Z,5.97
2023-07-22T04:22:08.858Z,6.63
2023-07-22T04:25:12.270Z,5.07
2023-07-22T04:28:16.785Z,5.57
2023-07-22T04:31:19.790Z,6.13
2023-07-22T04:34:22.843Z,5.63
2023-07-22T04:37:25.989Z,5.83
2023-07-22T04:40:29.089Z,6.23
2023-07-22T04:43:33.904Z,5.70
2023-07-22T04:46:37.245Z,6.03
2023-07-22T04:49:41.069Z,6.50
2023-07-22T04:52:47.283Z,5.70
2023-07-22T04:55:50.358Z,5.40
2023-07-22T04:58:54.862Z,6.40
2023-07-22T05:01:57.997Z,6.10
2023-07-22T05:05:01.415Z,6.00
2023-07-22T05:08:05.033Z,6.90
2023-07-22T05:11:09.274Z,6.80
2023-07-22T05:14:14.566Z,7.23
2023-07-22T05:17:17.619Z,6.97
2023-07-22T05:20:20.961Z,6.90
2023-07-22T05:23:24.290Z,7.77
2023-07-22T05:26:28.075Z,6.90
2023-07-22T05:29:32.793Z,6.97
2023-07-22T05:32:35.932Z,7.17
2023-07-22T05:35:39.107Z,7.47
2023-07-22T05:38:42.543Z,9.30
2023-07-22T05:41:45.646Z,7.80
2023-07-22T05:44:51.000Z,7.63
2023-07-22T05:47:54.125Z,7.67
2023-07-22T05:50:57.414Z,8.27
2023-07-22T05:54:00.468Z,7.97
2023-07-22T05:57:04.972Z,7.80
2023-07-22T06:00:14.018Z,8.07
2023-07-22T06:03:17.754Z,8.00
2023-07-22T06:06:23.717Z,9.20
2023-07-22T06:09:27.285Z,8.70
2023-07-22T06:12:30.379Z,8.57
2023-07-22T06:15:35.109Z,8.20
2023-07-22T06:18:38.149Z,8.00
2023-07-22T06:21:41.166Z,7.80
2023-07-22T06:24:44.638Z,7.23
2023-07-22T06:27:47.786Z,7.87
2023-07-22T06:30:52.176Z,7.83
2023-07-22T06:33:56.320Z,7.57
2023-07-22T06:36:59.472Z,6.60
2023-07-22T06:40:03.197Z,7.40
2023-07-22T06:43:06.768Z,7.07
2023-07-22T06:46:11.319Z,8.60
2023-07-22T06:49:14.659Z,7.97
2023-07-22T06:52:17.676Z,7.50
2023-07-22T06:55:21.295Z,9.33
2023-07-22T06:58:24.366Z,6.47
2023-07-22T07:01:28.978Z,6.83
2023-07-22T07:04:32.001Z,6.50
2023-07-22T07:07:35.159Z,5.80
2023-07-22T07:10:40.715Z,5.53
2023-07-22T07:13:43.821Z,5.80
2023-07-22T07:16:48.189Z,5.97
2023-07-22T07:19:51.269Z,5.13
2023-07-22T07:22:54.287Z,4.87
2023-07-22T07:25:57.576Z,5.53
2023-07-22T07:29:00.690Z,6.57
2023-07-22T07:32:06.267Z,5.37
2023-07-22T07:35:10.311Z,5.30
2023-07-22T07:38:13.322Z,5.33
2023-07-22T07:41:16.608Z,6.03
2023-07-22T07:44:19.771Z,5.63
2023-07-22T07:47:24.262Z,6.07
2023-07-22T07:50:27.433Z,5.80
2023-07-22T07:53:30.790Z,5.70
2023-07-22T07:56:33.942Z,5.60
2023-07-22T07:59:39.300Z,5.07
2023-07-22T08:02:44.195Z,6.00
2023-07-22T08:05:47.315Z,5.73
2023-07-22T08:08:50.624Z,6.20
2023-07-22T08:11:54.298Z,6.03
2023-07-22T08:14:57.375Z,5.70
2023-07-22T08:18:01.765Z,6.00
2023-07-22T08:21:06.329Z,5.83
2023-07-22T08:24:10.103Z,5.57
2023-07-22T08:27:13.268Z,5.67
2023-07-22T08:30:16.776Z,6.03
2023-07-22T08:33:30.760Z,6.13
2023-07-22T08:36:43.344Z,5.77
2023-07-22T08:39:46.372Z,7.47
2023-07-22T08:42:51.628Z,9.93
2023-07-22T08:45:56.409Z,7.20
2023-07-22T08:49:02.918Z,5.77
2023-07-22T08:52:06.863Z,6.20
2023-07-22T08:55:11.856Z,5.37
2023-07-22T08:58:15.210Z,5.53
2023-07-22T09:01:18.669Z,6.07
2023-07-22T09:04:24.702Z,5.93
2023-07-22T09:07:28.535Z,7.10
2023-07-22T09:10:31.935Z,5.77
2023-07-22T09:13:36.044Z,5.40
2023-07-22T09:16:39.390Z,5.93
2023-07-22T09:19:44.083Z,6.13
2023-07-22T09:22:51.122Z,5.80
2023-07-22T09:26:10.726Z,6.00
2023-07-22T09:29:13.751Z,6.20
2023-07-22T09:32:16.835Z,5.27
2023-07-22T09:35:22.028Z,10.23
2023-07-22T09:38:26.426Z,5.33
2023-07-22T09:41:31.440Z,6.03
2023-07-22T09:44:35.115Z,5.87
2023-07-22T09:47:43.614Z,5.20
2023-07-22T09:50:48.452Z,5.43
2023-07-22T09:54:03.173Z,4.20
2023-07-22T09:57:06.971Z,5.00
2023-07-22T10:00:11.187Z,4.33
2023-07-22T10:03:17.299Z,4.80
2023-07-22T10:06:22.157Z,3.83
2023-07-22T10:09:29.358Z,4.20
2023-07-22T10:12:32.589Z,3.83
2023-07-22T10:15:36.545Z,5.63
2023-07-22T10:18:42.990Z,6.00
2023-07-22T10:21:47.800Z,4.50
2023-07-22T10:24:51.810Z,5.00
2023-07-22T10:27:56.339Z,4.80
2023-07-22T10:30:59.470Z,5.13
2023-07-22T10:34:03.708Z,4.80
2023-07-22T10:37:12.725Z,4.63
2023-07-22T10:40:27.197Z,5.20
2023-07-22T10:43:32.865Z,5.73
2023-07-22T10:46:37.180Z,4.73
2023-07-22T10:49:47.768Z,4.53
2023-07-22T10:52:53.041Z,4.40
2023-07-22T10:56:07.066Z,9.47
2023-07-22T10:59:12.746Z,6.70
2023-07-22T11:02:26.966Z,5.33
2023-07-22T11:05:50.039Z,5.40
2023-07-22T11:08:54.489Z,7.20
2023-07-22T11:11:58.989Z,8.57
2023-07-22T11:15:06.751Z,5.27
2023-07-22T11:18:09.863Z,5.63
2023-07-22T11:21:14.348Z,5.40
2023-07-22T11:24:19.217Z,5.20
2023-07-22T11:27:22.348Z,5.33
2023-07-22T11:30:26.230Z,5.87
2023-07-22T11:33:40.962Z,5.40
2023-07-22T11:36:44.877Z,5.83
2023-07-22T11:39:49.392Z,5.77
2023-07-22T11:42:53.844Z,7.83
2023-07-22T11:45:57.053Z,5.77
2023-07-22T11:49:03.114Z,5.20
2023-07-22T11:52:09.235Z,5.90
2023-07-22T11:55:19.752Z,6.30
2023-07-22T11:58:27.698Z,5.13
2023-07-22T12:01:35.059Z,5.80
2023-07-22T12:04:38.098Z,5.67
2023-07-22T12:07:42.610Z,5.20
2023-07-22T12:10:57.652Z,5.90
2023-07-22T12:14:14.700Z,6.03
2023-07-22T12:17:19.195Z,5.70
2023-07-22T12:20:26.470Z,5.70
2023-07-22T12:23:29.512Z,4.63
2023-07-22T12:26:34.026Z,4.80
2023-07-22T12:29:37.697Z,4.73
2023-07-22T12:32:41.178Z,5.27
2023-07-22T12:35:44.207Z,5.23
2023-07-22T12:38:47.539Z,5.53
2023-07-22T12:41:51.951Z,5.23
2023-07-22T12:44:55.368Z,5.13
2023-07-22T12:47:58.499Z,5.53
2023-07-22T12:51:01.672Z,5.47
2023-07-22T12:54:05.127Z,5.43
2023-07-22T12:57:10.250Z,5.93
2023-07-22T13:00:14.227Z,6.03
2023-07-22T13:03:17.417Z,5.97
2023-07-22T13:06:20.510Z,5.97
2023-07-22T13:09:23.465Z,5.33
2023-07-22T13:12:28.004Z,6.20
2023-07-22T13:15:31.181Z,6.20
2023-07-22T13:18:34.157Z,5.50
2023-07-22T13:21:37.370Z,6.10
2023-07-22T13:24:40.456Z,5.63
2023-07-22T13:27:44.975Z,7.53
2023-07-22T13:30:48.065Z,8.60
2023-07-22T13:33:51.096Z,6.17
2023-07-22T13:36:54.424Z,5.20
2023-07-22T13:39:58.756Z,6.40
2023-07-22T13:43:03.651Z,5.20
2023-07-22T13:46:06.879Z,5.83
2023-07-22T13:49:09.881Z,6.10
2023-07-22T13:52:12.973Z,5.20
2023-07-22T13:55:16.137Z,4.70
2023-07-22T13:58:20.562Z,5.87
2023-07-22T14:01:23.657Z,7.70
2023-07-22T14:04:26.773Z,4.80
2023-07-22T14:07:29.990Z,5.30
2023-07-22T14:10:33.135Z,5.03
2023-07-22T14:13:37.593Z,5.53
2023-07-22T14:16:40.725Z,5.03
2023-07-22T14:19:43.952Z,5.47
2023-07-22T14:22:47.376Z,5.10
2023-07-22T14:25:50.474Z,4.77
2023-07-22T14:28:54.853Z,5.40
2023-07-22T14:31:59.052Z,5.13
2023-07-22T14:35:02.218Z,5.20
2023-07-22T14:38:05.284Z,5.30
2023-07-22T14:41:08.380Z,5.70
2023-07-22T14:44:14.130Z,5.77
2023-07-22T14:47:17.268Z,5.33
2023-07-22T14:50:20.360Z,4.77
2023-07-22T14:53:23.689Z,5.60
2023-07-22T14:56:27.024Z,6.70
2023-07-22T14:59:31.506Z,5.17
2023-07-22T15:02:34.732Z,5.80
2023-07-22T15:05:37.872Z,5.47
2023-07-22T15:08:40.885Z,5.37
2023-07-22T15:11:44.229Z,5.63
2023-07-22T15:14:48.607Z,6.27
2023-07-22T15:17:52.166Z,6.30
2023-07-22T15:20:55.381Z,5.90
2023-07-22T15:23:58.509Z,5.57
2023-07-22T15:27:01.617Z,6.20
2023-07-22T15:30:08.185Z,5.90
2023-07-22T15:33:11.296Z,6.17
2023-07-22T15:36:14.349Z,5.73
2023-07-22T15:39:17.413Z,6.67
2023-07-22T15:42:20.606Z,6.07
2023-07-22T15:45:25.698Z,5.57
2023-07-22T15:48:28.738Z,6.27
2023-07-22T15:51:31.800Z,6.40
2023-07-22T15:54:34.812Z,5.87
2023-07-22T15:57:38.175Z,6.03
2023-07-22T16:00:42.831Z,6.60
2023-07-22T16:03:46.233Z,5.77
2023-07-22T16:06:49.246Z,5.70
2023-07-22T16:09:53.788Z,6.07
2023-07-22T16:12:57.113Z,5.20
2023-07-22T16:16:01.570Z,6.03
2023-07-22T16:19:04.625Z,4.93
2023-07-22T16:22:08.830Z,5.43
2023-07-22T16:25:12.542Z,4.97
2023-07-22T16:28:15.666Z,5.33
2023-07-22T16:31:20.070Z,5.20
2023-07-22T16:34:23.702Z,4.77
2023-07-22T16:37:26.717Z,4.87
2023-07-22T16:40:29.941Z,4.90
2023-07-22T16:43:33.247Z,4.93
2023-07-22T16:46:38.116Z,4.87
2023-07-22T16:49:41.101Z,5.17
2023-07-22T16:52:44.157Z,4.63
2023-07-22T16:55:47.269Z,4.87
2023-07-22T16:58:50.411Z,4.47
2023-07-22T17:01:55.133Z,5.30
2023-07-22T17:04:58.265Z,5.33
2023-07-22T17:08:02.408Z,4.83
2023-07-22T17:11:05.746Z,5.40
2023-07-22T17:14:08.837Z,5.30
2023-07-22T17:17:13.295Z,4.80
2023-07-22T17:20:16.673Z,5.27
2023-07-22T17:23:19.595Z,5.07
2023-07-22T17:26:22.687Z,5.33
2023-07-22T17:29:25.897Z,5.03
2023-07-22T17:32:30.591Z,5.50
2023-07-22T17:35:36.197Z,4.90
2023-07-22T17:38:41.350Z,4.90
2023-07-22T17:41:44.541Z,4.93
2023-07-22T17:44:48.189Z,4.80
2023-07-22T17:47:53.723Z,5.40
2023-07-22T17:50:57.095Z,4.87
2023-07-22T17:54:00.135Z,5.27
2023-07-22T17:57:03.224Z,4.70
2023-07-22T18:00:07.692Z,4.90
2023-07-22T18:03:12.411Z,5.30
2023-07-22T18:06:17.410Z,4.50
2023-07-22T18:09:20.375Z,4.33
2023-07-22T18:12:23.491Z,4.30
2023-07-22T18:15:26.908Z,4.43
2023-07-22T18:18:31.363Z,4.67
2023-07-22T18:21:34.868Z,4.30
2023-07-22T18:24:37.903Z,4.20
2023-07-22T18:27:41.302Z,4.30
2023-07-22T18:30:44.546Z,4.60
2023-07-22T18:33:50.085Z,5.00
2023-07-22T18:36:53.852Z,4.70
2023-07-22T18:39:57.834Z,5.17
2023-07-22T18:43:01.155Z,5.07
2023-07-22T18:46:04.284Z,4.13
2023-07-22T18:49:09.234Z,4.50
2023-07-22T18:52:12.296Z,4.80
2023-07-22T18:55:15.576Z,4.93
2023-07-22T18:58:18.618Z,4.83
2023-07-22T19:01:21.906Z,4.93
2023-07-22T19:04:26.265Z,4.63
2023-07-22T19:07:29.591Z,5.00
2023-07-22T19:10:32.602Z,4.97
2023-07-22T19:13:35.622Z,5.40
2023-07-22T19:16:38.679Z,5.03
2023-07-22T19:19:43.706Z,4.80
2023-07-22T19:22:46.764Z,4.67
2023-07-22T19:25:49.831Z,5.00
2023-07-22T19:28:54.141Z,5.50
2023-07-22T19:31:57.304Z,5.33
2023-07-22T19:35:02.147Z,6.57
2023-07-22T19:38:06.414Z,7.30
2023-07-22T19:41:11.428Z,7.90
2023-07-22T19:44:14.616Z,7.60
2023-07-22T19:47:18.295Z,9.10
2023-07-22T19:50:24.442Z,8.43
2023-07-22T19:53:27.824Z,9.27
2023-07-22T19:56:30.926Z,9.77
2023-07-22T19:59:34.067Z,10.27
2023-07-22T20:02:37.167Z,9.23
2023-07-22T20:05:41.977Z,9.07
2023-07-22T20:08:46.738Z,8.23
2023-07-22T20:11:49.878Z,9.17
2023-07-22T20:14:52.873Z,9.27
2023-07-22T20:17:56.484Z,8.20
2023-07-22T20:21:01.569Z,8.97
2023-07-22T20:24:05.079Z,9.27
2023-07-22T20:27:08.356Z,9.70
2023-07-22T20:30:12.013Z,9.20
2023-07-22T20:33:15.148Z,9.97
2023-07-22T20:36:19.861Z,10.13
2023-07-22T20:39:24.881Z,10.10
2023-07-22T20:42:30.007Z,12.53
2023-07-22T20:45:36.153Z,12.20
2023-07-22T20:48:39.261Z,10.77
2023-07-22T20:51:55.584Z,10.43
2023-07-22T20:54:58.680Z,11.73
2023-07-22T20:58:01.788Z,10.07
2023-07-22T21:01:05.315Z,9.60
2023-07-22T21:04:10.909Z,9.07
2023-07-22T21:07:15.468Z,9.20
2023-07-22T21:10:18.571Z,8.90
2023-07-22T21:13:24.242Z,9.03
2023-07-22T21:16:27.934Z,8.77
2023-07-22T21:19:31.109Z,8.80
2023-07-22T21:22:35.660Z,8.50
2023-07-22T21:25:47.093Z,8.77
2023-07-22T21:28:53.173Z,8.50
2023-07-22T21:31:56.262Z,8.90
2023-07-22T21:35:02.338Z,8.40
2023-07-22T21:38:06.685Z,9.13
2023-07-22T21:41:10.124Z,8.80
2023-07-22T21:44:13.333Z,9.17
2023-07-22T21:47:16.587Z,8.27
2023-07-22T21:50:19.912Z,8.50
2023-07-22T21:53:27.034Z,8.13
2023-07-22T21:56:30.157Z,7.73
2023-07-22T21:59:33.262Z,8.30
2023-07-22T22:02:36.283Z,8.10
2023-07-22T22:05:39.552Z,10.47
2023-07-22T22:08:44.245Z,8.93
2023-07-22T22:11:47.381Z,8.97
2023-07-22T22:14:54.355Z,8.57
2023-07-22T22:18:00.734Z,8.53
2023-07-22T22:21:04.249Z,8.90
2023-07-22T22:24:09.360Z,7.80
2023-07-22T22:27:13.573Z,7.47
2023-07-22T22:30:16.991Z,7.60
2023-07-22T22:33:20.165Z,8.67
2023-07-22T22:36:23.291Z,8.80
2023-07-22T22:39:27.808Z,9.63
2023-07-22T22:42:30.887Z,10.80
2023-07-22T22:45:34.182Z,10.27
2023-07-22T22:48:37.345Z,10.63
2023-07-22T22:51:40.649Z,9.67
2023-07-22T22:54:46.149Z,9.10
2023-07-22T22:57:51.032Z,8.47
2023-07-22T23:00:54.526Z,8.37
2023-07-22T23:03:57.612Z,7.93
2023-07-22T23:07:00.831Z,7.63
2023-07-22T23:10:06.885Z,8.20
2023-07-22T23:13:09.974Z,7.67
2023-07-22T23:16:13.200Z,7.97
2023-07-22T23:19:16.373Z,7.77
2023-07-22T23:22:19.516Z,7.53
2023-07-22T23:25:23.999Z,6.93
2023-07-22T23:28:27.156Z,8.50
2023-07-22T23:31:30.641Z,8.87
2023-07-22T23:34:33.936Z,8.33
2023-07-22T23:37:37.022Z,9.10
2023-07-22T23:40:41.527Z,9.27
2023-07-22T23:43:44.950Z,8.73
2023-07-22T23:46:48.068Z,7.37
2023-07-22T23:49:51.218Z,8.20
2023-07-22T23:52:54.598Z,7.80
2023-07-22T23:55:59.768Z,7.00
2023-07-22T23:59:03.526Z,7.80
